sensor_id;sensor_type;location;lat;lon;timestamp;temperature;humidity
2158;DHT22;41972;48.774;9.282;2023-05-10T00:00:22;13.70;99.90
2158;DHT22;41972;48.774;9.282;2023-05-10T00:02:49;13.70;99.90
2158;DHT22;41972;48.774;9.282;2023-05-10T00:05:14;13.70;99.90
2158;DHT22;41972;48.774;9.282;2023-05-10T00:07:40;13.70;99.90
2158;DHT22;41972;48.774;9.282;2023-05-10T00:10:06;13.50;99.90
2158;DHT22;41972;48.774;9.282;2023-05-10T00:12:32;13.50;99.90
2158;DHT22;41972;48.774;9.282;2023-05-10T00:14:57;13.60;99.90
2158;DHT22;41972;48.774;9.282;2023-05-10T00:17:23;13.70;99.90
2158;DHT22;41972;48.774;9.282;2023-05-10T00:19:50;13.60;99.90
2158;DHT22;41972;48.774;9.282;2023-05-10T00:22:15;13.70;99.90
2158;DHT22;41972;48.774;9.282;2023-05-10T00:24:41;13.50;99.90
2158;DHT22;41972;48.774;9.282;2023-05-10T00:27:06;13.60;99.90
2158;DHT22;41972;48.774;9.282;2023-05-10T00:29:32;13.50;99.90
2158;DHT22;41972;48.774;9.282;2023-05-10T00:31:59;13.50;99.90
2158;DHT22;41972;48.774;9.282;2023-05-10T00:34:24;13.40;99.90
2158;DHT22;41972;48.774;9.282;2023-05-10T00:36:50;13.40;99.90
2158;DHT22;41972;48.774;9.282;2023-05-10T00:39:15;13.30;99.90
2158;DHT22;41972;48.774;9.282;2023-05-10T00:41:41;13.40;99.90
2158;DHT22;41972;48.774;9.282;2023-05-10T00:44:06;13.40;99.90
2158;DHT22;41972;48.774;9.282;2023-05-10T00:46:32;13.20;99.90
2158;DHT22;41972;48.774;9.282;2023-05-10T00:48:58;13.10;99.90
2158;DHT22;41972;48.774;9.282;2023-05-10T00:51:24;12.90;99.90
2158;DHT22;41972;48.774;9.282;2023-05-10T00:53:50;12.80;99.90
2158;DHT22;41972;48.774;9.282;2023-05-10T00:56:16;12.70;99.90
2158;DHT22;41972;48.774;9.282;2023-05-10T00:58:42;13.30;99.90
2158;DHT22;41972;48.774;9.282;2023-05-10T01:01:08;12.80;99.90
2158;DHT22;41972;48.774;9.282;2023-05-10T01:03:34;12.80;99.90
2158;DHT22;41972;48.774;9.282;2023-05-10T01:06:01;12.60;99.90
2158;DHT22;41972;48.774;9.282;2023-05-10T01:08:27;12.80;99.90
2158;DHT22;41972;48.774;9.282;2023-05-10T01:10:54;12.60;99.90
2158;DHT22;41972;48.774;9.282;2023-05-10T01:13:40;12.60;99.90
2158;DHT22;41972;48.774;9.282;2023-05-10T01:16:07;12.50;99.90
2158;DHT22;41972;48.774;9.282;2023-05-10T01:18:36;12.60;99.90
2158;DHT22;41972;48.774;9.282;2023-05-10T01:21:57;12.60;99.90
2158;DHT22;41972;48.774;9.282;2023-05-10T01:25:10;12.50;99.90
2158;DHT22;41972;48.774;9.282;2023-05-10T01:33:55;12.50;99.90
2158;DHT22;41972;48.774;9.282;2023-05-10T01:36:32;12.50;99.90
2158;DHT22;41972;48.774;9.282;2023-05-10T01:44:37;12.70;99.90
2158;DHT22;41972;48.774;9.282;2023-05-10T01:47:09;12.60;99.90
2158;DHT22;41972;48.774;9.282;2023-05-10T01:49:41;12.60;99.90
2158;DHT22;41972;48.774;9.282;2023-05-10T01:52:11;12.50;99.90
2158;DHT22;41972;48.774;9.282;2023-05-10T01:54:55;12.50;99.90
2158;DHT22;41972;48.774;9.282;2023-05-10T01:57:23;12.60;99.90
2158;DHT22;41972;48.774;9.282;2023-05-10T01:59:50;12.60;99.90
2158;DHT22;41972;48.774;9.282;2023-05-10T02:02:18;12.60;99.90
2158;DHT22;41972;48.774;9.282;2023-05-10T02:04:46;12.60;99.90
2158;DHT22;41972;48.774;9.282;2023-05-10T02:07:14;12.70;99.90
2158;DHT22;41972;48.774;9.282;2023-05-10T02:09:42;12.70;99.90
2158;DHT22;41972;48.774;9.282;2023-05-10T02:12:09;12.80;99.90
2158;DHT22;41972;48.774;9.282;2023-05-10T02:14:37;12.80;99.90
2158;DHT22;41972;48.774;9.282;2023-05-10T02:17:05;12.90;99.90
2158;DHT22;41972;48.774;9.282;2023-05-10T02:19:32;12.60;99.90
2158;DHT22;41972;48.774;9.282;2023-05-10T02:21:59;12.60;99.90
2158;DHT22;41972;48.774;9.282;2023-05-10T02:24:26;12.40;99.90
2158;DHT22;41972;48.774;9.282;2023-05-10T02:26:54;12.10;99.90
2158;DHT22;41972;48.774;9.282;2023-05-10T02:29:23;12.00;99.90
2158;DHT22;41972;48.774;9.282;2023-05-10T02:31:52;11.90;99.90
2158;DHT22;41972;48.774;9.282;2023-05-10T02:34:21;12.50;99.90
2158;DHT22;41972;48.774;9.282;2023-05-10T02:36:47;11.90;99.90
2158;DHT22;41972;48.774;9.282;2023-05-10T02:39:14;12.40;99.90
2158;DHT22;41972;48.774;9.282;2023-05-10T02:41:42;11.80;99.90
2158;DHT22;41972;48.774;9.282;2023-05-10T02:44:09;11.90;99.90
2158;DHT22;41972;48.774;9.282;2023-05-10T02:46:36;11.90;99.90
2158;DHT22;41972;48.774;9.282;2023-05-10T02:49:03;11.80;99.90
2158;DHT22;41972;48.774;9.282;2023-05-10T02:51:32;11.80;99.90
2158;DHT22;41972;48.774;9.282;2023-05-10T02:54:06;11.90;99.90
2158;DHT22;41972;48.774;9.282;2023-05-10T02:56:36;11.90;99.90
2158;DHT22;41972;48.774;9.282;2023-05-10T02:59:04;12.00;99.90
2158;DHT22;41972;48.774;9.282;2023-05-10T03:01:30;12.00;99.90
2158;DHT22;41972;48.774;9.282;2023-05-10T03:03:56;12.00;99.90
2158;DHT22;41972;48.774;9.282;2023-05-10T03:06:21;11.90;99.90
2158;DHT22;41972;48.774;9.282;2023-05-10T03:08:47;12.60;99.90
2158;DHT22;41972;48.774;9.282;2023-05-10T03:11:39;11.90;99.90
2158;DHT22;41972;48.774;9.282;2023-05-10T03:16:56;11.90;99.90
2158;DHT22;41972;48.774;9.282;2023-05-10T03:19:58;11.90;99.90
2158;DHT22;41972;48.774;9.282;2023-05-10T03:22:44;12.00;99.90
2158;DHT22;41972;48.774;9.282;2023-05-10T03:25:11;12.10;99.90
2158;DHT22;41972;48.774;9.282;2023-05-10T03:27:43;12.00;99.90
2158;DHT22;41972;48.774;9.282;2023-05-10T03:30:11;11.90;99.90
2158;DHT22;41972;48.774;9.282;2023-05-10T03:32:38;12.00;99.90
2158;DHT22;41972;48.774;9.282;2023-05-10T03:35:08;12.00;99.90
2158;DHT22;41972;48.774;9.282;2023-05-10T03:37:34;11.90;99.90
2158;DHT22;41972;48.774;9.282;2023-05-10T03:40:00;12.00;99.90
2158;DHT22;41972;48.774;9.282;2023-05-10T03:42:25;12.00;99.90
2158;DHT22;41972;48.774;9.282;2023-05-10T03:44:51;12.00;99.90
2158;DHT22;41972;48.774;9.282;2023-05-10T03:47:16;12.10;99.90
2158;DHT22;41972;48.774;9.282;2023-05-10T03:49:42;12.00;99.90
2158;DHT22;41972;48.774;9.282;2023-05-10T03:52:07;12.10;99.90
2158;DHT22;41972;48.774;9.282;2023-05-10T03:54:33;11.90;99.90
2158;DHT22;41972;48.774;9.282;2023-05-10T03:56:58;12.00;99.90
2158;DHT22;41972;48.774;9.282;2023-05-10T03:59:25;11.90;99.90
2158;DHT22;41972;48.774;9.282;2023-05-10T04:01:51;12.00;99.90
2158;DHT22;41972;48.774;9.282;2023-05-10T04:04:16;12.10;99.90
2158;DHT22;41972;48.774;9.282;2023-05-10T04:06:44;12.00;99.90
2158;DHT22;41972;48.774;9.282;2023-05-10T04:09:09;12.00;99.90
2158;DHT22;41972;48.774;9.282;2023-05-10T04:11:35;11.90;99.90
2158;DHT22;41972;48.774;9.282;2023-05-10T04:14:00;11.90;99.90
2158;DHT22;41972;48.774;9.282;2023-05-10T04:16:26;11.90;99.90
2158;DHT22;41972;48.774;9.282;2023-05-10T04:18:51;12.00;99.90
2158;DHT22;41972;48.774;9.282;2023-05-10T04:21:17;12.00;99.90
2158;DHT22;41972;48.774;9.282;2023-05-10T04:23:44;11.90;99.90
2158;DHT22;41972;48.774;9.282;2023-05-10T04:26:10;12.10;99.90
2158;DHT22;41972;48.774;9.282;2023-05-10T04:28:35;12.00;99.90
2158;DHT22;41972;48.774;9.282;2023-05-10T04:31:05;12.10;99.90
2158;DHT22;41972;48.774;9.282;2023-05-10T04:33:31;12.30;99.90
2158;DHT22;41972;48.774;9.282;2023-05-10T04:35:57;12.50;99.90
2158;DHT22;41972;48.774;9.282;2023-05-10T04:38:22;12.40;99.90
2158;DHT22;41972;48.774;9.282;2023-05-10T04:40:48;12.40;99.90
2158;DHT22;41972;48.774;9.282;2023-05-10T04:43:14;12.70;99.90
2158;DHT22;41972;48.774;9.282;2023-05-10T04:45:39;12.80;99.90
2158;DHT22;41972;48.774;9.282;2023-05-10T04:48:05;12.80;99.90
2158;DHT22;41972;48.774;9.282;2023-05-10T04:50:31;13.00;99.90
2158;DHT22;41972;48.774;9.282;2023-05-10T04:52:57;13.20;99.90
2158;DHT22;41972;48.774;9.282;2023-05-10T04:55:22;13.10;99.90
2158;DHT22;41972;48.774;9.282;2023-05-10T04:57:48;13.30;99.90
2158;DHT22;41972;48.774;9.282;2023-05-10T05:00:14;13.40;99.90
2158;DHT22;41972;48.774;9.282;2023-05-10T05:02:43;13.60;99.90
2158;DHT22;41972;48.774;9.282;2023-05-10T05:05:12;13.50;99.90
2158;DHT22;41972;48.774;9.282;2023-05-10T05:07:38;13.60;99.90
2158;DHT22;41972;48.774;9.282;2023-05-10T05:10:07;13.80;99.90
2158;DHT22;41972;48.774;9.282;2023-05-10T05:12:33;14.00;99.90
2158;DHT22;41972;48.774;9.282;2023-05-10T05:14:59;14.20;99.90
2158;DHT22;41972;48.774;9.282;2023-05-10T05:17:25;14.10;99.90
2158;DHT22;41972;48.774;9.282;2023-05-10T05:19:51;14.50;99.90
2158;DHT22;41972;48.774;9.282;2023-05-10T05:22:16;14.30;99.90
2158;DHT22;41972;48.774;9.282;2023-05-10T05:24:42;14.10;99.90
2158;DHT22;41972;48.774;9.282;2023-05-10T05:27:07;14.40;99.90
2158;DHT22;41972;48.774;9.282;2023-05-10T05:29:33;13.80;99.90
2158;DHT22;41972;48.774;9.282;2023-05-10T05:31:59;14.00;99.90
2158;DHT22;41972;48.774;9.282;2023-05-10T05:34:24;14.40;99.90
2158;DHT22;41972;48.774;9.282;2023-05-10T05:36:50;14.60;99.90
2158;DHT22;41972;48.774;9.282;2023-05-10T05:39:16;13.90;99.90
2158;DHT22;41972;48.774;9.282;2023-05-10T05:41:41;14.00;99.90
2158;DHT22;41972;48.774;9.282;2023-05-10T05:44:07;14.00;99.90
2158;DHT22;41972;48.774;9.282;2023-05-10T05:46:33;14.00;99.90
2158;DHT22;41972;48.774;9.282;2023-05-10T05:48:59;14.00;99.90
2158;DHT22;41972;48.774;9.282;2023-05-10T05:51:24;14.10;99.90
2158;DHT22;41972;48.774;9.282;2023-05-10T05:53:50;14.10;99.90
2158;DHT22;41972;48.774;9.282;2023-05-10T05:56:16;14.30;99.90
2158;DHT22;41972;48.774;9.282;2023-05-10T05:58:42;14.30;99.90
2158;DHT22;41972;48.774;9.282;2023-05-10T06:01:08;14.50;99.90
2158;DHT22;41972;48.774;9.282;2023-05-10T06:03:34;14.80;99.90
2158;DHT22;41972;48.774;9.282;2023-05-10T06:06:00;14.90;99.90
2158;DHT22;41972;48.774;9.282;2023-05-10T06:08:25;14.90;99.90
2158;DHT22;41972;48.774;9.282;2023-05-10T06:10:51;14.60;99.90
2158;DHT22;41972;48.774;9.282;2023-05-10T06:13:16;14.70;99.90
2158;DHT22;41972;48.774;9.282;2023-05-10T06:15:42;15.00;99.90
2158;DHT22;41972;48.774;9.282;2023-05-10T06:18:08;14.70;99.90
2158;DHT22;41972;48.774;9.282;2023-05-10T06:20:33;14.70;99.90
2158;DHT22;41972;48.774;9.282;2023-05-10T06:22:59;15.00;99.90
2158;DHT22;41972;48.774;9.282;2023-05-10T06:25:24;15.20;99.90
2158;DHT22;41972;48.774;9.282;2023-05-10T06:27:50;15.30;99.90
2158;DHT22;41972;48.774;9.282;2023-05-10T06:30:16;14.90;99.90
2158;DHT22;41972;48.774;9.282;2023-05-10T06:32:41;15.00;99.90
2158;DHT22;41972;48.774;9.282;2023-05-10T06:35:09;14.20;99.90
2158;DHT22;41972;48.774;9.282;2023-05-10T06:37:36;14.50;99.90
2158;DHT22;41972;48.774;9.282;2023-05-10T06:40:01;13.80;99.90
2158;DHT22;41972;48.774;9.282;2023-05-10T06:42:27;13.90;99.90
2158;DHT22;41972;48.774;9.282;2023-05-10T06:44:52;14.40;99.90
2158;DHT22;41972;48.774;9.282;2023-05-10T06:47:18;14.60;99.90
2158;DHT22;41972;48.774;9.282;2023-05-10T06:49:44;14.40;99.90
2158;DHT22;41972;48.774;9.282;2023-05-10T06:52:09;14.00;99.90
2158;DHT22;41972;48.774;9.282;2023-05-10T06:54:35;14.50;99.90
2158;DHT22;41972;48.774;9.282;2023-05-10T06:57:00;14.40;99.90
2158;DHT22;41972;48.774;9.282;2023-05-10T06:59:28;14.80;99.90
2158;DHT22;41972;48.774;9.282;2023-05-10T07:01:53;14.70;99.90
2158;DHT22;41972;48.774;9.282;2023-05-10T07:04:19;14.10;99.90
2158;DHT22;41972;48.774;9.282;2023-05-10T07:06:45;13.80;99.90
2158;DHT22;41972;48.774;9.282;2023-05-10T07:09:11;14.10;99.90
2158;DHT22;41972;48.774;9.282;2023-05-10T07:11:37;14.00;99.90
2158;DHT22;41972;48.774;9.282;2023-05-10T07:14:03;14.20;99.90
2158;DHT22;41972;48.774;9.282;2023-05-10T07:16:28;14.20;99.90
2158;DHT22;41972;48.774;9.282;2023-05-10T07:18:54;14.30;99.90
2158;DHT22;41972;48.774;9.282;2023-05-10T07:21:19;14.60;99.90
2158;DHT22;41972;48.774;9.282;2023-05-10T07:23:45;14.90;99.90
2158;DHT22;41972;48.774;9.282;2023-05-10T07:26:10;15.00;99.90
2158;DHT22;41972;48.774;9.282;2023-05-10T07:28:36;15.20;99.90
2158;DHT22;41972;48.774;9.282;2023-05-10T07:31:03;15.30;99.90
2158;DHT22;41972;48.774;9.282;2023-05-10T07:33:28;15.90;99.90
2158;DHT22;41972;48.774;9.282;2023-05-10T07:35:54;16.20;99.90
2158;DHT22;41972;48.774;9.282;2023-05-10T07:38:20;16.30;99.90
2158;DHT22;41972;48.774;9.282;2023-05-10T07:40:45;16.80;99.90
2158;DHT22;41972;48.774;9.282;2023-05-10T07:43:11;17.00;99.90
2158;DHT22;41972;48.774;9.282;2023-05-10T07:45:37;17.40;99.90
2158;DHT22;41972;48.774;9.282;2023-05-10T07:48:02;17.50;99.90
2158;DHT22;41972;48.774;9.282;2023-05-10T07:50:28;17.60;99.90
2158;DHT22;41972;48.774;9.282;2023-05-10T07:52:53;17.40;99.90
2158;DHT22;41972;48.774;9.282;2023-05-10T07:55:19;17.40;99.90
2158;DHT22;41972;48.774;9.282;2023-05-10T07:57:46;17.30;99.90
2158;DHT22;41972;48.774;9.282;2023-05-10T08:00:13;16.50;99.90
2158;DHT22;41972;48.774;9.282;2023-05-10T08:02:39;16.10;99.90
2158;DHT22;41972;48.774;9.282;2023-05-10T08:05:05;16.70;99.90
2158;DHT22;41972;48.774;9.282;2023-05-10T08:07:30;17.30;99.90
2158;DHT22;41972;48.774;9.282;2023-05-10T08:09:56;17.30;99.90
2158;DHT22;41972;48.774;9.282;2023-05-10T08:12:22;17.10;99.90
2158;DHT22;41972;48.774;9.282;2023-05-10T08:14:47;17.30;99.90
2158;DHT22;41972;48.774;9.282;2023-05-10T08:17:13;17.10;99.90
2158;DHT22;41972;48.774;9.282;2023-05-10T08:19:38;16.90;99.90
2158;DHT22;41972;48.774;9.282;2023-05-10T08:22:04;16.70;99.90
2158;DHT22;41972;48.774;9.282;2023-05-10T08:24:30;16.70;99.90
2158;DHT22;41972;48.774;9.282;2023-05-10T08:26:56;16.00;99.90
2158;DHT22;41972;48.774;9.282;2023-05-10T08:29:21;15.80;99.90
2158;DHT22;41972;48.774;9.282;2023-05-10T08:31:47;16.10;99.90
2158;DHT22;41972;48.774;9.282;2023-05-10T08:34:12;16.20;99.90
2158;DHT22;41972;48.774;9.282;2023-05-10T08:36:38;16.00;99.90
2158;DHT22;41972;48.774;9.282;2023-05-10T08:39:03;16.20;99.90
2158;DHT22;41972;48.774;9.282;2023-05-10T08:41:29;16.20;99.90
2158;DHT22;41972;48.774;9.282;2023-05-10T08:43:59;16.40;99.90
2158;DHT22;41972;48.774;9.282;2023-05-10T08:46:28;16.30;99.90
2158;DHT22;41972;48.774;9.282;2023-05-10T08:48:55;16.00;99.90
2158;DHT22;41972;48.774;9.282;2023-05-10T08:51:25;16.20;99.90
2158;DHT22;41972;48.774;9.282;2023-05-10T08:53:52;15.90;99.90
2158;DHT22;41972;48.774;9.282;2023-05-10T08:56:18;15.70;99.90
2158;DHT22;41972;48.774;9.282;2023-05-10T08:58:45;15.30;99.90
2158;DHT22;41972;48.774;9.282;2023-05-10T09:01:12;15.20;99.90
2158;DHT22;41972;48.774;9.282;2023-05-10T09:03:39;14.90;99.90
2158;DHT22;41972;48.774;9.282;2023-05-10T09:06:05;15.10;99.90
2158;DHT22;41972;48.774;9.282;2023-05-10T09:08:32;15.20;99.90
2158;DHT22;41972;48.774;9.282;2023-05-10T09:11:00;15.30;99.90
2158;DHT22;41972;48.774;9.282;2023-05-10T09:13:27;15.50;99.90
2158;DHT22;41972;48.774;9.282;2023-05-10T09:15:53;16.20;99.90
2158;DHT22;41972;48.774;9.282;2023-05-10T09:18:19;17.10;99.90
2158;DHT22;41972;48.774;9.282;2023-05-10T09:20:45;17.60;99.90
2158;DHT22;41972;48.774;9.282;2023-05-10T09:23:11;18.00;99.90
2158;DHT22;41972;48.774;9.282;2023-05-10T09:25:36;18.30;99.90
2158;DHT22;41972;48.774;9.282;2023-05-10T09:28:06;18.30;99.90
2158;DHT22;41972;48.774;9.282;2023-05-10T09:30:33;18.00;99.90
2158;DHT22;41972;48.774;9.282;2023-05-10T09:32:59;17.90;99.90
2158;DHT22;41972;48.774;9.282;2023-05-10T09:35:27;17.70;99.90
2158;DHT22;41972;48.774;9.282;2023-05-10T09:37:54;17.30;99.90
2158;DHT22;41972;48.774;9.282;2023-05-10T09:40:21;17.00;99.90
2158;DHT22;41972;48.774;9.282;2023-05-10T09:45:28;16.40;99.90
2158;DHT22;41972;48.774;9.282;2023-05-10T09:47:54;16.40;99.90
2158;DHT22;41972;48.774;9.282;2023-05-10T09:50:20;15.90;99.90
2158;DHT22;41972;48.774;9.282;2023-05-10T09:52:51;16.20;99.90
2158;DHT22;41972;48.774;9.282;2023-05-10T09:55:23;16.00;99.90
2158;DHT22;41972;48.774;9.282;2023-05-10T09:57:49;16.50;99.90
2158;DHT22;41972;48.774;9.282;2023-05-10T10:00:23;16.80;99.90
2158;DHT22;41972;48.774;9.282;2023-05-10T10:02:56;17.00;99.90
2158;DHT22;41972;48.774;9.282;2023-05-10T10:05:36;17.70;99.90
2158;DHT22;41972;48.774;9.282;2023-05-10T10:08:05;17.00;99.90
2158;DHT22;41972;48.774;9.282;2023-05-10T10:10:32;17.80;99.90
2158;DHT22;41972;48.774;9.282;2023-05-10T10:12:58;18.40;99.90
2158;DHT22;41972;48.774;9.282;2023-05-10T10:15:25;18.80;99.90
2158;DHT22;41972;48.774;9.282;2023-05-10T10:17:51;17.90;99.90
2158;DHT22;41972;48.774;9.282;2023-05-10T10:20:18;18.20;99.90
2158;DHT22;41972;48.774;9.282;2023-05-10T10:22:44;18.00;99.90
2158;DHT22;41972;48.774;9.282;2023-05-10T10:25:15;17.50;99.90
2158;DHT22;41972;48.774;9.282;2023-05-10T10:30:45;16.90;99.90
2158;DHT22;41972;48.774;9.282;2023-05-10T10:36:00;16.10;99.90
2158;DHT22;41972;48.774;9.282;2023-05-10T10:38:25;15.80;99.90
2158;DHT22;41972;48.774;9.282;2023-05-10T10:41:10;15.90;99.90
2158;DHT22;41972;48.774;9.282;2023-05-10T10:43:36;16.10;99.90
2158;DHT22;41972;48.774;9.282;2023-05-10T10:46:19;15.60;99.90
2158;DHT22;41972;48.774;9.282;2023-05-10T10:49:08;16.10;99.90
2158;DHT22;41972;48.774;9.282;2023-05-10T10:51:37;15.80;99.90
2158;DHT22;41972;48.774;9.282;2023-05-10T10:54:10;16.20;99.90
2158;DHT22;41972;48.774;9.282;2023-05-10T10:56:35;16.60;99.90
2158;DHT22;41972;48.774;9.282;2023-05-10T10:59:01;16.90;99.90
2158;DHT22;41972;48.774;9.282;2023-05-10T11:01:35;17.10;99.90
2158;DHT22;41972;48.774;9.282;2023-05-10T11:06:35;16.40;99.90
2158;DHT22;41972;48.774;9.282;2023-05-10T11:09:11;16.20;99.90
2158;DHT22;41972;48.774;9.282;2023-05-10T11:11:52;15.50;99.90
2158;DHT22;41972;48.774;9.282;2023-05-10T11:14:21;15.20;99.90
2158;DHT22;41972;48.774;9.282;2023-05-10T11:16:47;14.80;99.90
2158;DHT22;41972;48.774;9.282;2023-05-10T11:19:16;14.90;99.90
2158;DHT22;41972;48.774;9.282;2023-05-10T11:21:50;14.80;99.90
2158;DHT22;41972;48.774;9.282;2023-05-10T11:24:22;14.70;99.90
2158;DHT22;41972;48.774;9.282;2023-05-10T11:26:51;14.40;99.90
2158;DHT22;41972;48.774;9.282;2023-05-10T11:29:17;14.30;99.90
2158;DHT22;41972;48.774;9.282;2023-05-10T11:31:43;14.40;99.90
2158;DHT22;41972;48.774;9.282;2023-05-10T11:34:10;14.90;99.90
2158;DHT22;41972;48.774;9.282;2023-05-10T11:36:36;14.70;99.90
2158;DHT22;41972;48.774;9.282;2023-05-10T11:39:02;15.00;99.90
2158;DHT22;41972;48.774;9.282;2023-05-10T11:41:29;15.20;99.90
2158;DHT22;41972;48.774;9.282;2023-05-10T11:43:56;15.40;99.90
2158;DHT22;41972;48.774;9.282;2023-05-10T11:46:27;15.70;99.90
2158;DHT22;41972;48.774;9.282;2023-05-10T11:48:57;15.40;99.90
2158;DHT22;41972;48.774;9.282;2023-05-10T11:51:25;15.80;99.90
2158;DHT22;41972;48.774;9.282;2023-05-10T11:53:53;15.90;99.90
2158;DHT22;41972;48.774;9.282;2023-05-10T11:56:19;16.20;99.90
2158;DHT22;41972;48.774;9.282;2023-05-10T11:58:53;16.50;99.90
2158;DHT22;41972;48.774;9.282;2023-05-10T12:01:20;16.40;99.90
2158;DHT22;41972;48.774;9.282;2023-05-10T12:03:46;16.20;99.90
2158;DHT22;41972;48.774;9.282;2023-05-10T12:06:11;15.80;99.90
2158;DHT22;41972;48.774;9.282;2023-05-10T12:08:44;16.00;99.90
2158;DHT22;41972;48.774;9.282;2023-05-10T12:11:11;15.50;99.90
2158;DHT22;41972;48.774;9.282;2023-05-10T12:13:38;15.70;99.90
2158;DHT22;41972;48.774;9.282;2023-05-10T12:16:22;15.70;99.90
2158;DHT22;41972;48.774;9.282;2023-05-10T12:18:49;16.30;99.90
2158;DHT22;41972;48.774;9.282;2023-05-10T12:21:16;16.00;99.90
2158;DHT22;41972;48.774;9.282;2023-05-10T12:23:42;15.40;99.90
2158;DHT22;41972;48.774;9.282;2023-05-10T12:26:10;15.60;99.90
2158;DHT22;41972;48.774;9.282;2023-05-10T12:28:36;16.00;99.90
2158;DHT22;41972;48.774;9.282;2023-05-10T12:31:02;15.90;99.90
2158;DHT22;41972;48.774;9.282;2023-05-10T12:33:42;16.20;99.90
2158;DHT22;41972;48.774;9.282;2023-05-10T12:36:12;16.20;99.90
2158;DHT22;41972;48.774;9.282;2023-05-10T12:38:40;16.20;99.90
2158;DHT22;41972;48.774;9.282;2023-05-10T12:41:13;16.20;99.90
2158;DHT22;41972;48.774;9.282;2023-05-10T12:43:39;16.40;99.90
2158;DHT22;41972;48.774;9.282;2023-05-10T12:46:09;16.70;99.90
2158;DHT22;41972;48.774;9.282;2023-05-10T12:48:36;16.70;99.90
2158;DHT22;41972;48.774;9.282;2023-05-10T12:51:03;17.50;99.90
2158;DHT22;41972;48.774;9.282;2023-05-10T12:53:29;17.70;99.90
2158;DHT22;41972;48.774;9.282;2023-05-10T12:55:54;17.40;99.90
2158;DHT22;41972;48.774;9.282;2023-05-10T12:58:20;17.90;99.90
2158;DHT22;41972;48.774;9.282;2023-05-10T13:00:46;18.00;99.90
2158;DHT22;41972;48.774;9.282;2023-05-10T13:03:12;18.10;99.90
2158;DHT22;41972;48.774;9.282;2023-05-10T13:05:38;18.30;99.90
2158;DHT22;41972;48.774;9.282;2023-05-10T13:08:03;17.40;99.90
2158;DHT22;41972;48.774;9.282;2023-05-10T13:10:30;17.30;99.90
2158;DHT22;41972;48.774;9.282;2023-05-10T13:12:56;16.70;99.90
2158;DHT22;41972;48.774;9.282;2023-05-10T13:15:22;16.90;99.90
2158;DHT22;41972;48.774;9.282;2023-05-10T13:17:48;16.50;99.90
2158;DHT22;41972;48.774;9.282;2023-05-10T13:20:14;16.70;99.90
2158;DHT22;41972;48.774;9.282;2023-05-10T13:22:40;16.30;99.90
2158;DHT22;41972;48.774;9.282;2023-05-10T13:25:06;16.40;99.90
2158;DHT22;41972;48.774;9.282;2023-05-10T13:27:32;16.40;99.90
2158;DHT22;41972;48.774;9.282;2023-05-10T13:29:57;16.30;99.90
2158;DHT22;41972;48.774;9.282;2023-05-10T13:32:24;15.80;99.90
2158;DHT22;41972;48.774;9.282;2023-05-10T13:34:51;15.90;99.90
2158;DHT22;41972;48.774;9.282;2023-05-10T13:37:16;15.70;99.90
2158;DHT22;41972;48.774;9.282;2023-05-10T13:39:42;16.10;99.90
2158;DHT22;41972;48.774;9.282;2023-05-10T13:42:07;16.20;99.90
2158;DHT22;41972;48.774;9.282;2023-05-10T13:44:33;16.80;99.90
2158;DHT22;41972;48.774;9.282;2023-05-10T13:46:59;17.50;99.90
2158;DHT22;41972;48.774;9.282;2023-05-10T13:49:26;17.30;99.90
2158;DHT22;41972;48.774;9.282;2023-05-10T13:51:52;17.60;99.90
2158;DHT22;41972;48.774;9.282;2023-05-10T13:54:17;18.30;99.90
2158;DHT22;41972;48.774;9.282;2023-05-10T13:56:45;18.70;99.90
2158;DHT22;41972;48.774;9.282;2023-05-10T13:59:12;19.10;99.90
2158;DHT22;41972;48.774;9.282;2023-05-10T14:01:39;18.30;99.90
2158;DHT22;41972;48.774;9.282;2023-05-10T14:04:05;18.30;99.90
2158;DHT22;41972;48.774;9.282;2023-05-10T14:06:32;17.40;99.90
2158;DHT22;41972;48.774;9.282;2023-05-10T14:08:57;17.70;99.90
2158;DHT22;41972;48.774;9.282;2023-05-10T14:11:23;18.00;99.90
2158;DHT22;41972;48.774;9.282;2023-05-10T14:13:48;17.20;99.90
2158;DHT22;41972;48.774;9.282;2023-05-10T14:16:14;17.30;99.90
2158;DHT22;41972;48.774;9.282;2023-05-10T14:18:40;17.20;99.90
2158;DHT22;41972;48.774;9.282;2023-05-10T14:21:05;17.70;99.90
2158;DHT22;41972;48.774;9.282;2023-05-10T14:23:31;18.30;99.90
2158;DHT22;41972;48.774;9.282;2023-05-10T14:25:57;18.70;99.90
2158;DHT22;41972;48.774;9.282;2023-05-10T14:28:22;18.60;99.90
2158;DHT22;41972;48.774;9.282;2023-05-10T14:30:49;18.70;99.90
2158;DHT22;41972;48.774;9.282;2023-05-10T14:33:14;18.00;99.90
2158;DHT22;41972;48.774;9.282;2023-05-10T14:35:40;17.90;99.90
2158;DHT22;41972;48.774;9.282;2023-05-10T14:38:06;18.10;99.90
2158;DHT22;41972;48.774;9.282;2023-05-10T14:40:31;18.50;99.90
2158;DHT22;41972;48.774;9.282;2023-05-10T14:42:57;18.40;99.90
2158;DHT22;41972;48.774;9.282;2023-05-10T14:45:23;18.10;99.90
2158;DHT22;41972;48.774;9.282;2023-05-10T14:47:49;18.30;99.90
2158;DHT22;41972;48.774;9.282;2023-05-10T14:50:16;18.10;99.90
2158;DHT22;41972;48.774;9.282;2023-05-10T14:52:44;18.80;99.90
2158;DHT22;41972;48.774;9.282;2023-05-10T14:55:10;18.50;99.90
2158;DHT22;41972;48.774;9.282;2023-05-10T14:57:36;18.50;99.90
2158;DHT22;41972;48.774;9.282;2023-05-10T15:00:02;17.40;99.90
2158;DHT22;41972;48.774;9.282;2023-05-10T15:02:29;17.10;99.90
2158;DHT22;41972;48.774;9.282;2023-05-10T15:04:54;16.70;99.90
2158;DHT22;41972;48.774;9.282;2023-05-10T15:07:20;16.30;99.90
2158;DHT22;41972;48.774;9.282;2023-05-10T15:09:45;16.40;99.90
2158;DHT22;41972;48.774;9.282;2023-05-10T15:12:11;16.50;99.90
2158;DHT22;41972;48.774;9.282;2023-05-10T15:14:37;16.20;99.90
2158;DHT22;41972;48.774;9.282;2023-05-10T15:17:02;16.10;99.90
2158;DHT22;41972;48.774;9.282;2023-05-10T15:19:28;16.20;99.90
2158;DHT22;41972;48.774;9.282;2023-05-10T15:21:55;16.40;99.90
2158;DHT22;41972;48.774;9.282;2023-05-10T15:24:21;16.80;99.90
2158;DHT22;41972;48.774;9.282;2023-05-10T15:26:47;17.20;99.90
2158;DHT22;41972;48.774;9.282;2023-05-10T15:29:12;17.10;99.90
2158;DHT22;41972;48.774;9.282;2023-05-10T15:31:48;17.00;99.90
2158;DHT22;41972;48.774;9.282;2023-05-10T15:34:16;16.40;99.90
2158;DHT22;41972;48.774;9.282;2023-05-10T15:36:41;16.40;99.90
2158;DHT22;41972;48.774;9.282;2023-05-10T15:39:07;16.60;99.90
2158;DHT22;41972;48.774;9.282;2023-05-10T15:41:34;17.10;99.90
2158;DHT22;41972;48.774;9.282;2023-05-10T15:44:00;16.90;99.90
2158;DHT22;41972;48.774;9.282;2023-05-10T15:46:29;16.70;99.90
2158;DHT22;41972;48.774;9.282;2023-05-10T15:48:56;16.30;99.90
2158;DHT22;41972;48.774;9.282;2023-05-10T15:51:22;16.30;99.90
2158;DHT22;41972;48.774;9.282;2023-05-10T15:53:47;16.50;99.90
2158;DHT22;41972;48.774;9.282;2023-05-10T15:56:13;16.40;99.90
2158;DHT22;41972;48.774;9.282;2023-05-10T15:58:40;16.30;99.90
2158;DHT22;41972;48.774;9.282;2023-05-10T16:01:06;16.60;99.90
2158;DHT22;41972;48.774;9.282;2023-05-10T16:03:32;16.40;99.90
2158;DHT22;41972;48.774;9.282;2023-05-10T16:05:59;16.50;99.90
2158;DHT22;41972;48.774;9.282;2023-05-10T16:08:24;16.70;99.90
2158;DHT22;41972;48.774;9.282;2023-05-10T16:10:51;16.70;99.90